sensor_id;sensor_type;location;lat;lon;timestamp;P1;durP1;ratioP1;P2;durP2;ratioP2
37905;SDS011;23739;51.448;6.674;2024-02-14T00:00:18;6.30;;;2.28;;
37905;SDS011;23739;51.448;6.674;2024-02-14T00:02:45;6.22;;;2.22;;
37905;SDS011;23739;51.448;6.674;2024-02-14T00:05:15;1.92;;;1.38;;
37905;SDS011;23739;51.448;6.674;2024-02-14T00:07:41;4.47;;;1.98;;
37905;SDS011;23739;51.448;6.674;2024-02-14T00:10:08;6.25;;;2.30;;
37905;SDS011;23739;51.448;6.674;2024-02-14T00:12:34;3.97;;;2.28;;
37905;SDS011;23739;51.448;6.674;2024-02-14T00:15:04;6.22;;;3.22;;
37905;SDS011;23739;51.448;6.674;2024-02-14T00:17:31;5.20;;;3.17;;
37905;SDS011;23739;51.448;6.674;2024-02-14T00:19:58;8.05;;;2.60;;
37905;SDS011;23739;51.448;6.674;2024-02-14T00:22:24;3.97;;;2.13;;
37905;SDS011;23739;51.448;6.674;2024-02-14T00:24:50;3.83;;;2.00;;
37905;SDS011;23739;51.448;6.674;2024-02-14T00:27:16;4.47;;;1.98;;
37905;SDS011;23739;51.448;6.674;2024-02-14T00:29:43;7.85;;;3.22;;
37905;SDS011;23739;51.448;6.674;2024-02-14T00:32:11;10.40;;;3.88;;
37905;SDS011;23739;51.448;6.674;2024-02-14T00:34:37;7.35;;;4.20;;
37905;SDS011;23739;51.448;6.674;2024-02-14T00:37:03;9.65;;;3.97;;
37905;SDS011;23739;51.448;6.674;2024-02-14T00:39:29;8.20;;;4.03;;
37905;SDS011;23739;51.448;6.674;2024-02-14T00:41:55;7.97;;;4.45;;
37905;SDS011;23739;51.448;6.674;2024-02-14T00:44:22;7.47;;;4.32;;
37905;SDS011;23739;51.448;6.674;2024-02-14T00:46:48;8.10;;;3.50;;
37905;SDS011;23739;51.448;6.674;2024-02-14T00:49:14;6.63;;;4.00;;
37905;SDS011;23739;51.448;6.674;2024-02-14T00:51:40;9.45;;;3.22;;
37905;SDS011;23739;51.448;6.674;2024-02-14T00:54:06;4.35;;;2.92;;
37905;SDS011;23739;51.448;6.674;2024-02-14T00:56:33;4.82;;;2.90;;
37905;SDS011;23739;51.448;6.674;2024-02-14T00:58:59;5.60;;;3.35;;
37905;SDS011;23739;51.448;6.674;2024-02-14T01:01:25;6.13;;;3.50;;
37905;SDS011;23739;51.448;6.674;2024-02-14T01:03:52;7.30;;;3.10;;
37905;SDS011;23739;51.448;6.674;2024-02-14T01:06:18;6.35;;;3.05;;
37905;SDS011;23739;51.448;6.674;2024-02-14T01:08:45;5.45;;;3.22;;
37905;SDS011;23739;51.448;6.674;2024-02-14T01:11:10;4.95;;;3.38;;
37905;SDS011;23739;51.448;6.674;2024-02-14T01:13:37;6.68;;;3.83;;
37905;SDS011;23739;51.448;6.674;2024-02-14T01:16:03;6.88;;;3.47;;
37905;SDS011;23739;51.448;6.674;2024-02-14T01:18:30;6.93;;;3.40;;
37905;SDS011;23739;51.448;6.674;2024-02-14T01:20:56;7.57;;;3.60;;
37905;SDS011;23739;51.448;6.674;2024-02-14T01:23:24;7.60;;;3.90;;
37905;SDS011;23739;51.448;6.674;2024-02-14T01:25:50;6.18;;;3.22;;
37905;SDS011;23739;51.448;6.674;2024-02-14T01:28:16;9.25;;;3.47;;
37905;SDS011;23739;51.448;6.674;2024-02-14T01:30:42;6.93;;;3.72;;
37905;SDS011;23739;51.448;6.674;2024-02-14T01:33:09;6.22;;;3.10;;
37905;SDS011;23739;51.448;6.674;2024-02-14T01:35:35;3.75;;;3.03;;
37905;SDS011;23739;51.448;6.674;2024-02-14T01:38:01;3.75;;;2.70;;
37905;SDS011;23739;51.448;6.674;2024-02-14T01:40:28;3.53;;;2.78;;
37905;SDS011;23739;51.448;6.674;2024-02-14T01:42:54;6.03;;;2.33;;
37905;SDS011;23739;51.448;6.674;2024-02-14T01:45:20;3.78;;;2.22;;
37905;SDS011;23739;51.448;6.674;2024-02-14T01:47:46;2.63;;;1.73;;
37905;SDS011;23739;51.448;6.674;2024-02-14T01:50:13;2.78;;;1.30;;
37905;SDS011;23739;51.448;6.674;2024-02-14T01:52:40;2.55;;;1.33;;
37905;SDS011;23739;51.448;6.674;2024-02-14T01:55:06;4.40;;;1.10;;
37905;SDS011;23739;51.448;6.674;2024-02-14T01:57:33;3.05;;;1.40;;
37905;SDS011;23739;51.448;6.674;2024-02-14T02:00:01;5.53;;;1.70;;
37905;SDS011;23739;51.448;6.674;2024-02-14T02:02:40;1.38;;;0.90;;
37905;SDS011;23739;51.448;6.674;2024-02-14T02:05:06;2.25;;;1.38;;
37905;SDS011;23739;51.448;6.674;2024-02-14T02:07:32;2.88;;;1.27;;
37905;SDS011;23739;51.448;6.674;2024-02-14T02:09:58;3.25;;;1.40;;
37905;SDS011;23739;51.448;6.674;2024-02-14T02:12:24;2.63;;;1.13;;
37905;SDS011;23739;51.448;6.674;2024-02-14T02:14:52;1.98;;;1.10;;
37905;SDS011;23739;51.448;6.674;2024-02-14T02:17:18;7.05;;;1.30;;
37905;SDS011;23739;51.448;6.674;2024-02-14T02:19:44;2.72;;;1.17;;
37905;SDS011;23739;51.448;6.674;2024-02-14T02:22:10;1.52;;;1.42;;
37905;SDS011;23739;51.448;6.674;2024-02-14T02:24:36;3.35;;;1.30;;
37905;SDS011;23739;51.448;6.674;2024-02-14T02:27:02;4.07;;;1.73;;
37905;SDS011;23739;51.448;6.674;2024-02-14T02:29:28;2.60;;;1.05;;
37905;SDS011;23739;51.448;6.674;2024-02-14T02:31:56;2.92;;;1.15;;
37905;SDS011;23739;51.448;6.674;2024-02-14T02:34:22;2.45;;;1.30;;
37905;SDS011;23739;51.448;6.674;2024-02-14T02:36:48;3.78;;;1.60;;
37905;SDS011;23739;51.448;6.674;2024-02-14T02:39:16;2.35;;;1.20;;
37905;SDS011;23739;51.448;6.674;2024-02-14T02:41:42;5.93;;;1.67;;
37905;SDS011;23739;51.448;6.674;2024-02-14T02:44:10;3.78;;;1.42;;
37905;SDS011;23739;51.448;6.674;2024-02-14T02:46:36;2.65;;;1.38;;
37905;SDS011;23739;51.448;6.674;2024-02-14T02:49:02;1.88;;;1.10;;
37905;SDS011;23739;51.448;6.674;2024-02-14T02:51:29;2.47;;;1.40;;
37905;SDS011;23739;51.448;6.674;2024-02-14T02:53:55;1.33;;;1.05;;
37905;SDS011;23739;51.448;6.674;2024-02-14T02:56:21;2.67;;;1.30;;
37905;SDS011;23739;51.448;6.674;2024-02-14T02:58:47;2.97;;;1.48;;
37905;SDS011;23739;51.448;6.674;2024-02-14T03:01:13;4.25;;;1.88;;
37905;SDS011;23739;51.448;6.674;2024-02-14T03:03:40;1.65;;;1.20;;
37905;SDS011;23739;51.448;6.674;2024-02-14T03:06:07;2.22;;;1.45;;
37905;SDS011;23739;51.448;6.674;2024-02-14T03:08:34;2.05;;;1.20;;
37905;SDS011;23739;51.448;6.674;2024-02-14T03:11:06;1.33;;;1.15;;
37905;SDS011;23739;51.448;6.674;2024-02-14T03:13:32;3.53;;;1.85;;
37905;SDS011;23739;51.448;6.674;2024-02-14T03:16:00;2.13;;;1.85;;
37905;SDS011;23739;51.448;6.674;2024-02-14T03:18:27;4.03;;;1.88;;
37905;SDS011;23739;51.448;6.674;2024-02-14T03:20:52;2.35;;;1.50;;
37905;SDS011;23739;51.448;6.674;2024-02-14T03:23:19;2.95;;;1.63;;
37905;SDS011;23739;51.448;6.674;2024-02-14T03:25:45;3.67;;;1.90;;
37905;SDS011;23739;51.448;6.674;2024-02-14T03:28:11;2.63;;;1.63;;
37905;SDS011;23739;51.448;6.674;2024-02-14T03:30:38;4.15;;;2.13;;
37905;SDS011;23739;51.448;6.674;2024-02-14T03:33:05;3.83;;;1.70;;
37905;SDS011;23739;51.448;6.674;2024-02-14T03:35:33;7.43;;;2.00;;
37905;SDS011;23739;51.448;6.674;2024-02-14T03:38:02;3.88;;;2.05;;
37905;SDS011;23739;51.448;6.674;2024-02-14T03:40:28;3.63;;;1.70;;
37905;SDS011;23739;51.448;6.674;2024-02-14T03:42:56;4.85;;;2.45;;
37905;SDS011;23739;51.448;6.674;2024-02-14T03:45:22;3.75;;;2.05;;
37905;SDS011;23739;51.448;6.674;2024-02-14T03:47:48;4.45;;;2.40;;
37905;SDS011;23739;51.448;6.674;2024-02-14T03:50:14;3.95;;;2.17;;
37905;SDS011;23739;51.448;6.674;2024-02-14T03:52:41;5.95;;;2.17;;
37905;SDS011;23739;51.448;6.674;2024-02-14T03:55:07;5.85;;;2.08;;
37905;SDS011;23739;51.448;6.674;2024-02-14T03:57:38;3.97;;;1.80;;
37905;SDS011;23739;51.448;6.674;2024-02-14T04:00:04;2.83;;;2.28;;
37905;SDS011;23739;51.448;6.674;2024-02-14T04:02:34;3.35;;;2.28;;
37905;SDS011;23739;51.448;6.674;2024-02-14T04:05:00;3.08;;;1.95;;
37905;SDS011;23739;51.448;6.674;2024-02-14T04:07:27;3.35;;;2.67;;
37905;SDS011;23739;51.448;6.674;2024-02-14T04:09:54;3.63;;;1.90;;
37905;SDS011;23739;51.448;6.674;2024-02-14T04:12:21;2.58;;;1.92;;
37905;SDS011;23739;51.448;6.674;2024-02-14T04:14:47;3.92;;;1.83;;
37905;SDS011;23739;51.448;6.674;2024-02-14T04:17:13;3.58;;;2.15;;
37905;SDS011;23739;51.448;6.674;2024-02-14T04:19:40;3.42;;;1.75;;
37905;SDS011;23739;51.448;6.674;2024-02-14T04:22:06;3.40;;;2.00;;
37905;SDS011;23739;51.448;6.674;2024-02-14T04:24:33;2.20;;;1.73;;
37905;SDS011;23739;51.448;6.674;2024-02-14T04:27:00;3.00;;;2.22;;
37905;SDS011;23739;51.448;6.674;2024-02-14T04:29:27;3.95;;;1.83;;
37905;SDS011;23739;51.448;6.674;2024-02-14T04:31:55;3.28;;;2.40;;
37905;SDS011;23739;51.448;6.674;2024-02-14T04:34:21;3.28;;;2.17;;
37905;SDS011;23739;51.448;6.674;2024-02-14T04:36:47;6.10;;;2.80;;
37905;SDS011;23739;51.448;6.674;2024-02-14T04:39:13;5.78;;;2.60;;
37905;SDS011;23739;51.448;6.674;2024-02-14T04:41:39;4.30;;;2.40;;
37905;SDS011;23739;51.448;6.674;2024-02-14T04:44:05;4.10;;;2.40;;
37905;SDS011;23739;51.448;6.674;2024-02-14T04:46:32;3.28;;;2.70;;
37905;SDS011;23739;51.448;6.674;2024-02-14T04:49:00;4.22;;;2.15;;
37905;SDS011;23739;51.448;6.674;2024-02-14T04:51:28;4.25;;;2.50;;
37905;SDS011;23739;51.448;6.674;2024-02-14T04:53:54;3.50;;;2.65;;
37905;SDS011;23739;51.448;6.674;2024-02-14T04:56:23;2.40;;;2.20;;
37905;SDS011;23739;51.448;6.674;2024-02-14T04:58:49;3.30;;;2.15;;
37905;SDS011;23739;51.448;6.674;2024-02-14T05:01:15;4.07;;;2.05;;
37905;SDS011;23739;51.448;6.674;2024-02-14T05:03:42;3.25;;;2.35;;
37905;SDS011;23739;51.448;6.674;2024-02-14T05:06:09;4.68;;;2.45;;
37905;SDS011;23739;51.448;6.674;2024-02-14T05:08:35;4.13;;;2.45;;
37905;SDS011;23739;51.448;6.674;2024-02-14T05:11:01;4.65;;;2.47;;
37905;SDS011;23739;51.448;6.674;2024-02-14T05:13:28;3.90;;;2.55;;
37905;SDS011;23739;51.448;6.674;2024-02-14T05:15:55;2.92;;;2.40;;
37905;SDS011;23739;51.448;6.674;2024-02-14T05:18:21;4.30;;;2.20;;
37905;SDS011;23739;51.448;6.674;2024-02-14T05:20:47;4.05;;;3.00;;
37905;SDS011;23739;51.448;6.674;2024-02-14T05:23:14;3.40;;;2.58;;
37905;SDS011;23739;51.448;6.674;2024-02-14T05:25:42;3.88;;;2.38;;
37905;SDS011;23739;51.448;6.674;2024-02-14T05:28:08;5.07;;;2.78;;
37905;SDS011;23739;51.448;6.674;2024-02-14T05:30:38;6.13;;;3.38;;
37905;SDS011;23739;51.448;6.674;2024-02-14T05:33:04;6.10;;;2.83;;
37905;SDS011;23739;51.448;6.674;2024-02-14T05:35:30;3.88;;;2.95;;
37905;SDS011;23739;51.448;6.674;2024-02-14T05:37:56;3.40;;;2.38;;
37905;SDS011;23739;51.448;6.674;2024-02-14T05:40:22;4.68;;;2.72;;
37905;SDS011;23739;51.448;6.674;2024-02-14T05:42:49;5.10;;;2.65;;
37905;SDS011;23739;51.448;6.674;2024-02-14T05:45:15;3.78;;;2.80;;
37905;SDS011;23739;51.448;6.674;2024-02-14T05:47:42;3.88;;;2.72;;
37905;SDS011;23739;51.448;6.674;2024-02-14T05:50:08;4.43;;;3.08;;
37905;SDS011;23739;51.448;6.674;2024-02-14T05:52:37;6.50;;;2.70;;
37905;SDS011;23739;51.448;6.674;2024-02-14T05:55:03;5.57;;;3.35;;
37905;SDS011;23739;51.448;6.674;2024-02-14T05:57:30;4.15;;;2.97;;
37905;SDS011;23739;51.448;6.674;2024-02-14T05:59:56;5.50;;;2.80;;
37905;SDS011;23739;51.448;6.674;2024-02-14T06:02:22;5.07;;;3.42;;
37905;SDS011;23739;51.448;6.674;2024-02-14T06:04:48;5.22;;;3.10;;
37905;SDS011;23739;51.448;6.674;2024-02-14T06:07:14;4.72;;;4.05;;
37905;SDS011;23739;51.448;6.674;2024-02-14T06:09:40;5.00;;;3.40;;
37905;SDS011;23739;51.448;6.674;2024-02-14T06:12:06;7.78;;;3.75;;
37905;SDS011;23739;51.448;6.674;2024-02-14T06:14:32;3.80;;;3.50;;
37905;SDS011;23739;51.448;6.674;2024-02-14T06:17:00;6.70;;;4.35;;
37905;SDS011;23739;51.448;6.674;2024-02-14T06:19:26;6.82;;;4.30;;
37905;SDS011;23739;51.448;6.674;2024-02-14T06:21:52;6.22;;;4.20;;
37905;SDS011;23739;51.448;6.674;2024-02-14T06:24:18;6.85;;;4.40;;
37905;SDS011;23739;51.448;6.674;2024-02-14T06:26:45;9.63;;;4.85;;
37905;SDS011;23739;51.448;6.674;2024-02-14T06:29:11;5.22;;;4.03;;
37905;SDS011;23739;51.448;6.674;2024-02-14T06:31:37;8.38;;;4.38;;
37905;SDS011;23739;51.448;6.674;2024-02-14T06:34:03;5.90;;;3.88;;
37905;SDS011;23739;51.448;6.674;2024-02-14T06:36:32;5.68;;;3.88;;
37905;SDS011;23739;51.448;6.674;2024-02-14T06:38:58;5.53;;;3.97;;
37905;SDS011;23739;51.448;6.674;2024-02-14T06:41:24;5.75;;;4.38;;
37905;SDS011;23739;51.448;6.674;2024-02-14T06:43:50;7.32;;;4.40;;
37905;SDS011;23739;51.448;6.674;2024-02-14T06:46:16;7.28;;;4.72;;
37905;SDS011;23739;51.448;6.674;2024-02-14T06:48:42;5.32;;;4.13;;
37905;SDS011;23739;51.448;6.674;2024-02-14T06:51:08;5.28;;;4.18;;
37905;SDS011;23739;51.448;6.674;2024-02-14T06:53:34;8.23;;;4.80;;
37905;SDS011;23739;51.448;6.674;2024-02-14T06:56:00;7.60;;;4.22;;
37905;SDS011;23739;51.448;6.674;2024-02-14T06:58:27;8.25;;;4.32;;
37905;SDS011;23739;51.448;6.674;2024-02-14T07:00:53;6.18;;;4.22;;
37905;SDS011;23739;51.448;6.674;2024-02-14T07:03:19;6.57;;;4.93;;
37905;SDS011;23739;51.448;6.674;2024-02-14T07:05:45;6.25;;;4.72;;
37905;SDS011;23739;51.448;6.674;2024-02-14T07:08:11;6.18;;;4.68;;
37905;SDS011;23739;51.448;6.674;2024-02-14T07:10:37;7.28;;;5.50;;
37905;SDS011;23739;51.448;6.674;2024-02-14T07:13:03;9.77;;;5.18;;
37905;SDS011;23739;51.448;6.674;2024-02-14T07:15:29;8.45;;;4.88;;
37905;SDS011;23739;51.448;6.674;2024-02-14T07:17:55;6.15;;;5.07;;
37905;SDS011;23739;51.448;6.674;2024-02-14T07:20:23;6.50;;;4.93;;
37905;SDS011;23739;51.448;6.674;2024-02-14T07:22:51;8.82;;;5.15;;
37905;SDS011;23739;51.448;6.674;2024-02-14T07:25:18;5.28;;;4.63;;
37905;SDS011;23739;51.448;6.674;2024-02-14T07:27:44;7.43;;;5.47;;
37905;SDS011;23739;51.448;6.674;2024-02-14T07:30:17;7.63;;;4.93;;
37905;SDS011;23739;51.448;6.674;2024-02-14T07:32:44;7.40;;;5.25;;
37905;SDS011;23739;51.448;6.674;2024-02-14T07:35:10;10.23;;;5.95;;
37905;SDS011;23739;51.448;6.674;2024-02-14T07:37:36;11.75;;;5.65;;
37905;SDS011;23739;51.448;6.674;2024-02-14T07:40:02;7.53;;;4.43;;
37905;SDS011;23739;51.448;6.674;2024-02-14T07:42:29;10.32;;;5.28;;
37905;SDS011;23739;51.448;6.674;2024-02-14T07:44:55;7.15;;;5.15;;
37905;SDS011;23739;51.448;6.674;2024-02-14T07:47:21;7.75;;;4.70;;
37905;SDS011;23739;51.448;6.674;2024-02-14T07:49:47;6.38;;;4.18;;
37905;SDS011;23739;51.448;6.674;2024-02-14T07:52:13;6.00;;;4.85;;
37905;SDS011;23739;51.448;6.674;2024-02-14T07:54:39;6.25;;;4.25;;
37905;SDS011;23739;51.448;6.674;2024-02-14T07:57:06;7.40;;;4.95;;
37905;SDS011;23739;51.448;6.674;2024-02-14T07:59:32;7.68;;;4.70;;
37905;SDS011;23739;51.448;6.674;2024-02-14T08:01:58;5.63;;;4.63;;
37905;SDS011;23739;51.448;6.674;2024-02-14T08:04:24;7.15;;;4.13;;
37905;SDS011;23739;51.448;6.674;2024-02-14T08:06:50;7.43;;;4.18;;
37905;SDS011;23739;51.448;6.674;2024-02-14T08:09:16;6.50;;;4.05;;
37905;SDS011;23739;51.448;6.674;2024-02-14T08:11:42;7.15;;;4.32;;
37905;SDS011;23739;51.448;6.674;2024-02-14T08:14:08;7.40;;;3.65;;
37905;SDS011;23739;51.448;6.674;2024-02-14T08:16:34;8.63;;;4.43;;
37905;SDS011;23739;51.448;6.674;2024-02-14T08:19:00;7.47;;;3.80;;
37905;SDS011;23739;51.448;6.674;2024-02-14T08:21:27;9.18;;;3.75;;
37905;SDS011;23739;51.448;6.674;2024-02-14T08:23:54;13.07;;;4.20;;
37905;SDS011;23739;51.448;6.674;2024-02-14T08:26:23;6.20;;;3.13;;
37905;SDS011;23739;51.448;6.674;2024-02-14T08:28:49;6.65;;;3.35;;
37905;SDS011;23739;51.448;6.674;2024-02-14T08:31:15;8.50;;;3.60;;
37905;SDS011;23739;51.448;6.674;2024-02-14T08:33:41;5.38;;;3.20;;
37905;SDS011;23739;51.448;6.674;2024-02-14T08:36:06;9.00;;;3.25;;
37905;SDS011;23739;51.448;6.674;2024-02-14T08:38:33;7.43;;;3.22;;
37905;SDS011;23739;51.448;6.674;2024-02-14T08:41:00;5.65;;;2.88;;
37905;SDS011;23739;51.448;6.674;2024-02-14T08:43:29;5.22;;;3.55;;
37905;SDS011;23739;51.448;6.674;2024-02-14T08:45:55;5.50;;;3.03;;
37905;SDS011;23739;51.448;6.674;2024-02-14T08:48:21;6.15;;;3.00;;
37905;SDS011;23739;51.448;6.674;2024-02-14T08:50:48;6.32;;;2.90;;
37905;SDS011;23739;51.448;6.674;2024-02-14T08:53:14;7.47;;;2.70;;
37905;SDS011;23739;51.448;6.674;2024-02-14T08:55:41;7.88;;;3.38;;
37905;SDS011;23739;51.448;6.674;2024-02-14T08:58:06;4.93;;;2.47;;
37905;SDS011;23739;51.448;6.674;2024-02-14T09:00:35;5.15;;;3.22;;
37905;SDS011;23739;51.448;6.674;2024-02-14T09:03:01;5.93;;;2.50;;
37905;SDS011;23739;51.448;6.674;2024-02-14T09:05:28;3.58;;;2.47;;
37905;SDS011;23739;51.448;6.674;2024-02-14T09:07:54;4.53;;;2.47;;
37905;SDS011;23739;51.448;6.674;2024-02-14T09:10:20;8.88;;;3.05;;
37905;SDS011;23739;51.448;6.674;2024-02-14T09:12:47;6.03;;;3.28;;
37905;SDS011;23739;51.448;6.674;2024-02-14T09:15:13;5.70;;;3.10;;
37905;SDS011;23739;51.448;6.674;2024-02-14T09:17:39;4.55;;;2.63;;
37905;SDS011;23739;51.448;6.674;2024-02-14T09:20:06;9.18;;;3.28;;
37905;SDS011;23739;51.448;6.674;2024-02-14T09:22:35;10.45;;;2.95;;
37905;SDS011;23739;51.448;6.674;2024-02-14T09:25:02;7.07;;;2.60;;
37905;SDS011;23739;51.448;6.674;2024-02-14T09:27:29;6.68;;;2.60;;
37905;SDS011;23739;51.448;6.674;2024-02-14T09:29:55;6.80;;;3.28;;
37905;SDS011;23739;51.448;6.674;2024-02-14T09:32:21;6.32;;;2.72;;
37905;SDS011;23739;51.448;6.674;2024-02-14T09:34:47;7.50;;;3.28;;
37905;SDS011;23739;51.448;6.674;2024-02-14T09:37:13;6.18;;;2.92;;
37905;SDS011;23739;51.448;6.674;2024-02-14T09:39:39;6.43;;;2.47;;
37905;SDS011;23739;51.448;6.674;2024-02-14T09:42:13;5.68;;;2.50;;
37905;SDS011;23739;51.448;6.674;2024-02-14T09:44:40;7.50;;;2.85;;
37905;SDS011;23739;51.448;6.674;2024-02-14T09:47:07;4.90;;;2.17;;
37905;SDS011;23739;51.448;6.674;2024-02-14T09:49:35;4.93;;;2.13;;
37905;SDS011;23739;51.448;6.674;2024-02-14T09:52:04;4.85;;;2.33;;
37905;SDS011;23739;51.448;6.674;2024-02-14T09:54:31;3.78;;;1.95;;
37905;SDS011;23739;51.448;6.674;2024-02-14T09:57:00;11.63;;;2.47;;
37905;SDS011;23739;51.448;6.674;2024-02-14T09:59:33;8.13;;;2.90;;
37905;SDS011;23739;51.448;6.674;2024-02-14T10:02:01;3.78;;;1.77;;
37905;SDS011;23739;51.448;6.674;2024-02-14T10:04:27;6.90;;;3.33;;
37905;SDS011;23739;51.448;6.674;2024-02-14T10:06:52;7.20;;;2.80;;
37905;SDS011;23739;51.448;6.674;2024-02-14T10:09:21;5.20;;;1.92;;
37905;SDS011;23739;51.448;6.674;2024-02-14T10:11:48;5.30;;;2.67;;
37905;SDS011;23739;51.448;6.674;2024-02-14T10:14:14;10.85;;;2.60;;
37905;SDS011;23739;51.448;6.674;2024-02-14T10:16:40;6.15;;;2.53;;
37905;SDS011;23739;51.448;6.674;2024-02-14T10:19:14;9.10;;;2.15;;
37905;SDS011;23739;51.448;6.674;2024-02-14T10:21:41;5.68;;;1.90;;
37905;SDS011;23739;51.448;6.674;2024-02-14T10:24:07;9.35;;;2.55;;
37905;SDS011;23739;51.448;6.674;2024-02-14T10:26:35;8.63;;;2.33;;
37905;SDS011;23739;51.448;6.674;2024-02-14T10:29:05;4.65;;;1.63;;
37905;SDS011;23739;51.448;6.674;2024-02-14T10:31:31;6.20;;;1.80;;
37905;SDS011;23739;51.448;6.674;2024-02-14T10:33:56;12.65;;;2.67;;
37905;SDS011;23739;51.448;6.674;2024-02-14T10:36:23;5.60;;;2.30;;
37905;SDS011;23739;51.448;6.674;2024-02-14T10:38:51;11.77;;;3.20;;
37905;SDS011;23739;51.448;6.674;2024-02-14T10:41:18;9.18;;;1.95;;
37905;SDS011;23739;51.448;6.674;2024-02-14T10:43:44;4.85;;;2.10;;
37905;SDS011;23739;51.448;6.674;2024-02-14T10:46:18;7.65;;;2.90;;
37905;SDS011;23739;51.448;6.674;2024-02-14T10:48:46;8.40;;;2.42;;
37905;SDS011;23739;51.448;6.674;2024-02-14T10:51:14;4.75;;;2.60;;
37905;SDS011;23739;51.448;6.674;2024-02-14T10:53:41;8.38;;;2.70;;
37905;SDS011;23739;51.448;6.674;2024-02-14T10:56:12;5.43;;;2.60;;
37905;SDS011;23739;51.448;6.674;2024-02-14T10:58:47;4.50;;;2.63;;
37905;SDS011;23739;51.448;6.674;2024-02-14T11:01:14;6.80;;;2.50;;
37905;SDS011;23739;51.448;6.674;2024-02-14T11:03:42;6.05;;;1.92;;
37905;SDS011;23739;51.448;6.674;2024-02-14T11:06:14;4.72;;;2.35;;
37905;SDS011;23739;51.448;6.674;2024-02-14T11:08:42;8.20;;;3.47;;
37905;SDS011;23739;51.448;6.674;2024-02-14T11:11:07;6.18;;;1.98;;
37905;SDS011;23739;51.448;6.674;2024-02-14T11:13:35;3.42;;;2.20;;
37905;SDS011;23739;51.448;6.674;2024-02-14T11:16:01;4.40;;;2.30;;
37905;SDS011;23739;51.448;6.674;2024-02-14T11:18:29;4.22;;;1.98;;
37905;SDS011;23739;51.448;6.674;2024-02-14T11:20:55;7.88;;;1.77;;
37905;SDS011;23739;51.448;6.674;2024-02-14T11:23:24;4.85;;;1.88;;
37905;SDS011;23739;51.448;6.674;2024-02-14T11:25:59;4.20;;;1.98;;
37905;SDS011;23739;51.448;6.674;2024-02-14T11:28:29;2.17;;;1.60;;
37905;SDS011;23739;51.448;6.674;2024-02-14T11:31:00;3.78;;;2.35;;
37905;SDS011;23739;51.448;6.674;2024-02-14T11:33:28;3.38;;;1.52;;
37905;SDS011;23739;51.448;6.674;2024-02-14T11:35:55;1.85;;;1.35;;
37905;SDS011;23739;51.448;6.674;2024-02-14T11:38:22;2.55;;;1.65;;
37905;SDS011;23739;51.448;6.674;2024-02-14T11:40:51;2.90;;;1.52;;
37905;SDS011;23739;51.448;6.674;2024-02-14T11:43:22;2.35;;;1.10;;
37905;SDS011;23739;51.448;6.674;2024-02-14T11:45:50;3.22;;;1.17;;
37905;SDS011;23739;51.448;6.674;2024-02-14T11:48:18;2.13;;;1.67;;
37905;SDS011;23739;51.448;6.674;2024-02-14T11:50:45;1.45;;;1.13;;
37905;SDS011;23739;51.448;6.674;2024-02-14T11:53:12;3.55;;;1.77;;
37905;SDS011;23739;51.448;6.674;2024-02-14T11:55:41;2.17;;;1.33;;
37905;SDS011;23739;51.448;6.674;2024-02-14T12:00:41;2.08;;;0.93;;
37905;SDS011;23739;51.448;6.674;2024-02-14T12:03:15;3.17;;;1.52;;
37905;SDS011;23739;51.448;6.674;2024-02-14T12:05:43;1.13;;;0.90;;
37905;SDS011;23739;51.448;6.674;2024-02-14T12:08:12;1.98;;;1.13;;
37905;SDS011;23739;51.448;6.674;2024-02-14T12:10:39;4.22;;;1.45;;
37905;SDS011;23739;51.448;6.674;2024-02-14T12:13:08;2.33;;;1.30;;
37905;SDS011;23739;51.448;6.674;2024-02-14T12:15:40;2.58;;;1.20;;
37905;SDS011;23739;51.448;6.674;2024-02-14T12:18:10;4.15;;;1.77;;
37905;SDS011;23739;51.448;6.674;2024-02-14T12:20:37;4.03;;;1.60;;
37905;SDS011;23739;51.448;6.674;2024-02-14T12:23:03;1.63;;;1.13;;
37905;SDS011;23739;51.448;6.674;2024-02-14T12:25:33;3.20;;;1.20;;
37905;SDS011;23739;51.448;6.674;2024-02-14T12:35:46;3.33;;;1.20;;
37905;SDS011;23739;51.448;6.674;2024-02-14T12:38:13;2.33;;;1.13;;
37905;SDS011;23739;51.448;6.674;2024-02-14T12:40:40;1.80;;;1.10;;
37905;SDS011;23739;51.448;6.674;2024-02-14T12:43:07;1.17;;;1.00;;
37905;SDS011;23739;51.448;6.674;2024-02-14T12:45:34;1.60;;;1.13;;
37905;SDS011;23739;51.448;6.674;2024-02-14T12:48:00;3.65;;;1.25;;
37905;SDS011;23739;51.448;6.674;2024-02-14T12:50:26;2.80;;;1.20;;
37905;SDS011;23739;51.448;6.674;2024-02-14T12:52:52;5.28;;;1.50;;
37905;SDS011;23739;51.448;6.674;2024-02-14T12:55:18;3.17;;;1.10;;
37905;SDS011;23739;51.448;6.674;2024-02-14T12:57:44;2.72;;;1.20;;
37905;SDS011;23739;51.448;6.674;2024-02-14T13:00:11;2.53;;;1.10;;
37905;SDS011;23739;51.448;6.674;2024-02-14T13:02:37;1.63;;;1.08;;
37905;SDS011;23739;51.448;6.674;2024-02-14T13:05:06;2.72;;;1.30;;
37905;SDS011;23739;51.448;6.674;2024-02-14T13:07:33;2.80;;;1.30;;
37905;SDS011;23739;51.448;6.674;2024-02-14T13:10:00;1.35;;;1.25;;
37905;SDS011;23739;51.448;6.674;2024-02-14T13:12:28;6.22;;;3.83;;
37905;SDS011;23739;51.448;6.674;2024-02-14T13:14:54;2.47;;;1.73;;
37905;SDS011;23739;51.448;6.674;2024-02-14T13:17:20;6.65;;;3.63;;
37905;SDS011;23739;51.448;6.674;2024-02-14T13:19:46;5.53;;;3.50;;
37905;SDS011;23739;51.448;6.674;2024-02-14T13:22:14;2.97;;;1.63;;
37905;SDS011;23739;51.448;6.674;2024-02-14T13:24:40;2.00;;;1.30;;
37905;SDS011;23739;51.448;6.674;2024-02-14T13:27:06;4.25;;;1.60;;
37905;SDS011;23739;51.448;6.674;2024-02-14T13:29:32;1.58;;;0.88;;
37905;SDS011;23739;51.448;6.674;2024-02-14T13:32:01;3.50;;;1.23;;
37905;SDS011;23739;51.448;6.674;2024-02-14T13:34:28;8.27;;;6.82;;
37905;SDS011;23739;51.448;6.674;2024-02-14T13:36:53;7.13;;;6.53;;
37905;SDS011;23739;51.448;6.674;2024-02-14T13:39:23;5.25;;;1.55;;
37905;SDS011;23739;51.448;6.674;2024-02-14T13:41:49;1.58;;;0.70;;
37905;SDS011;23739;51.448;6.674;2024-02-14T13:44:16;1.63;;;0.80;;
37905;SDS011;23739;51.448;6.674;2024-02-14T13:46:43;1.90;;;0.80;;
37905;SDS011;23739;51.448;6.674;2024-02-14T13:49:15;1.08;;;0.60;;
37905;SDS011;23739;51.448;6.674;2024-02-14T13:51:47;0.60;;;0.60;;
37905;SDS011;23739;51.448;6.674;2024-02-14T13:54:16;1.27;;;0.68;;
37905;SDS011;23739;51.448;6.674;2024-02-14T13:56:43;1.55;;;1.10;;
37905;SDS011;23739;51.448;6.674;2024-02-14T13:59:10;0.75;;;0.70;;
37905;SDS011;23739;51.448;6.674;2024-02-14T14:01:36;1.95;;;0.60;;
37905;SDS011;23739;51.448;6.674;2024-02-14T14:04:02;0.95;;;0.63;;
37905;SDS011;23739;51.448;6.674;2024-02-14T14:06:29;1.08;;;0.60;;
37905;SDS011;23739;51.448;6.674;2024-02-14T14:08:55;1.23;;;0.80;;
37905;SDS011;23739;51.448;6.674;2024-02-14T14:11:21;1.30;;;1.20;;
37905;SDS011;23739;51.448;6.674;2024-02-14T14:13:47;1.67;;;0.63;;
37905;SDS011;23739;51.448;6.674;2024-02-14T14:16:13;1.65;;;0.65;;
37905;SDS011;23739;51.448;6.674;2024-02-14T14:18:39;2.83;;;0.90;;
37905;SDS011;23739;51.448;6.674;2024-02-14T14:21:05;1.98;;;0.82;;
37905;SDS011;23739;51.448;6.674;2024-02-14T14:23:31;2.00;;;0.90;;
37905;SDS011;23739;51.448;6.674;2024-02-14T14:26:00;2.15;;;0.90;;
37905;SDS011;23739;51.448;6.674;2024-02-14T14:28:26;1.48;;;0.68;;
37905;SDS011;23739;51.448;6.674;2024-02-14T14:30:56;1.27;;;0.70;;
37905;SDS011;23739;51.448;6.674;2024-02-14T14:33:22;0.90;;;0.63;;
37905;SDS011;23739;51.448;6.674;2024-02-14T14:35:48;1.90;;;1.27;;
37905;SDS011;23739;51.448;6.674;2024-02-14T14:40:46;1.10;;;0.75;;
37905;SDS011;23739;51.448;6.674;2024-02-14T14:43:12;2.25;;;0.60;;
37905;SDS011;23739;51.448;6.674;2024-02-14T14:45:38;1.55;;;0.70;;
37905;SDS011;23739;51.448;6.674;2024-02-14T14:48:06;0.50;;;0.50;;
37905;SDS011;23739;51.448;6.674;2024-02-14T14:50:33;2.85;;;0.60;;
37905;SDS011;23739;51.448;6.674;2024-02-14T14:53:00;0.75;;;0.75;;
37905;SDS011;23739;51.448;6.674;2024-02-14T14:55:27;1.75;;;0.70;;
37905;SDS011;23739;51.448;6.674;2024-02-14T14:58:15;0.90;;;0.57;;